createdAt,value
2018-07-06T00:01:45.368Z,3.23
2018-07-06T00:06:59.982Z,3.00
2018-07-06T00:12:14.536Z,3.13
2018-07-06T00:17:29.243Z,2.90
2018-07-06T00:22:43.784Z,3.03
2018-07-06T00:27:58.623Z,2.80
2018-07-06T00:33:13.311Z,2.80
2018-07-06T00:38:27.776Z,2.23
2018-07-06T00:43:42.517Z,2.40
2018-07-06T00:48:57.282Z,2.67
2018-07-06T00:54:05.813Z,2.57
2018-07-06T00:59:20.391Z,2.77
2018-07-06T01:04:34.937Z,2.50
2018-07-06T01:09:49.576Z,3.73
2018-07-06T01:15:09.657Z,2.40
2018-07-06T01:20:24.512Z,2.40
2018-07-06T01:25:39.152Z,2.20
2018-07-06T01:30:53.823Z,2.03
2018-07-06T01:36:08.456Z,2.50
2018-07-06T01:41:23.239Z,2.40
2018-07-06T01:46:37.935Z,2.20
2018-07-06T01:51:53.199Z,2.20
2018-07-06T01:57:07.786Z,2.80
2018-07-06T02:02:22.741Z,2.30
2018-07-06T02:07:37.463Z,2.10
2018-07-06T02:12:52.255Z,3.13
2018-07-06T02:18:07.142Z,2.23
2018-07-06T02:23:21.854Z,2.17
2018-07-06T02:28:36.457Z,1.93
2018-07-06T02:33:51.084Z,2.60
2018-07-06T02:39:05.857Z,1.77
2018-07-06T02:44:20.478Z,2.00
2018-07-06T02:49:35.108Z,2.50
2018-07-06T02:54:49.920Z,1.93
2018-07-06T03:00:04.669Z,2.50
2018-07-06T03:05:19.279Z,2.60
2018-07-06T03:10:33.689Z,2.20
2018-07-06T03:15:48.091Z,1.83
2018-07-06T03:21:02.933Z,1.70
2018-07-06T03:26:17.885Z,2.10
2018-07-06T03:31:32.643Z,2.07
2018-07-06T03:36:47.213Z,1.80
2018-07-06T03:42:01.847Z,2.10
2018-07-06T03:47:16.835Z,2.10
2018-07-06T03:52:31.602Z,2.33
2018-07-06T03:57:46.177Z,1.90
2018-07-06T04:03:00.889Z,1.77
2018-07-06T04:08:15.976Z,2.00
2018-07-06T04:13:31.169Z,1.70
2018-07-06T04:18:45.658Z,1.67
2018-07-06T04:24:00.192Z,1.50
2018-07-06T04:29:16.178Z,1.37
2018-07-06T04:34:30.827Z,1.40
2018-07-06T04:39:45.419Z,1.33
2018-07-06T04:45:00.112Z,1.63
2018-07-06T04:50:14.786Z,1.43
2018-07-06T04:55:23.267Z,1.50
2018-07-06T05:00:37.846Z,1.47
2018-07-06T05:05:52.653Z,1.47
2018-07-06T05:11:07.353Z,1.50
2018-07-06T05:16:21.851Z,1.30
2018-07-06T05:21:36.894Z,2.00
2018-07-06T05:26:52.213Z,1.57
2018-07-06T05:32:07.000Z,1.30
2018-07-06T05:37:21.654Z,1.33
2018-07-06T05:42:36.602Z,1.10
2018-07-06T05:47:52.511Z,1.70
2018-07-06T05:53:06.999Z,2.00
2018-07-06T05:58:21.554Z,1.90
2018-07-06T06:03:36.299Z,2.03
2018-07-06T06:08:38.555Z,2.17
2018-07-06T06:13:43.376Z,2.00
2018-07-06T06:18:46.872Z,1.80
2018-07-06T06:23:49.994Z,2.13
2018-07-06T06:28:53.603Z,2.10
2018-07-06T06:33:58.931Z,2.67
2018-07-06T06:39:02.354Z,2.23
2018-07-06T06:44:07.060Z,2.27
2018-07-06T06:49:10.380Z,2.67
2018-07-06T06:54:14.680Z,2.57
2018-07-06T06:59:18.309Z,2.37
2018-07-06T07:04:22.085Z,2.07
2018-07-06T07:09:25.606Z,2.27
2018-07-06T07:14:29.749Z,1.90
2018-07-06T07:19:34.181Z,2.33
2018-07-06T07:24:37.937Z,2.47
2018-07-06T07:29:42.031Z,3.00
2018-07-06T07:34:46.628Z,2.60
2018-07-06T07:39:50.154Z,2.63
2018-07-06T07:44:53.403Z,2.33
2018-07-06T07:49:56.590Z,2.50
2018-07-06T07:55:00.201Z,2.63
2018-07-06T08:00:03.462Z,2.80
2018-07-06T08:05:06.741Z,2.50
2018-07-06T08:10:10.116Z,2.43
2018-07-06T08:15:13.325Z,2.30
2018-07-06T08:20:17.960Z,2.87
2018-07-06T08:25:21.217Z,2.70
2018-07-06T08:30:24.494Z,3.00
2018-07-06T08:35:39.090Z,2.50
2018-07-06T08:40:42.304Z,2.63
2018-07-06T08:45:45.694Z,2.93
2018-07-06T08:50:49.088Z,2.40
2018-07-06T08:55:52.349Z,2.63
2018-07-06T09:00:55.837Z,2.77
2018-07-06T09:05:59.054Z,2.60
2018-07-06T09:11:02.463Z,2.80
2018-07-06T09:16:05.858Z,2.30
2018-07-06T09:21:10.086Z,2.40
2018-07-06T09:26:13.812Z,2.43
2018-07-06T09:31:16.572Z,2.50
2018-07-06T09:36:19.866Z,2.77
2018-07-06T09:41:23.065Z,2.50
2018-07-06T09:46:26.589Z,2.40
2018-07-06T09:51:31.056Z,2.70
2018-07-06T09:56:34.281Z,3.40
2018-07-06T10:01:37.545Z,2.40
2018-07-06T10:06:40.844Z,2.90
2018-07-06T10:11:44.176Z,3.00
2018-07-06T10:16:47.718Z,3.37
2018-07-06T10:21:51.101Z,3.00
2018-07-06T10:26:54.254Z,2.50
2018-07-06T10:32:08.917Z,3.13
2018-07-06T10:37:12.139Z,3.63
2018-07-06T10:42:15.370Z,3.27
2018-07-06T10:47:18.657Z,4.00
2018-07-06T10:52:21.987Z,4.27
2018-07-06T10:57:25.345Z,4.27
2018-07-06T11:02:28.542Z,3.87
2018-07-06T11:07:31.966Z,3.67
2018-07-06T11:12:36.754Z,4.10
2018-07-06T11:17:40.127Z,4.40
2018-07-06T11:22:43.609Z,3.60
2018-07-06T11:27:46.815Z,3.67
2018-07-06T11:32:50.052Z,3.60
2018-07-06T11:37:53.327Z,3.20
2018-07-06T11:42:56.631Z,4.40
2018-07-06T11:47:59.966Z,3.90
2018-07-06T11:53:03.176Z,2.77
2018-07-06T11:58:06.457Z,2.93
2018-07-06T12:03:09.743Z,3.23
2018-07-06T12:08:12.995Z,3.60
2018-07-06T12:13:17.805Z,3.23
2018-07-06T12:18:21.036Z,3.33
2018-07-06T12:23:24.266Z,3.20
2018-07-06T12:28:27.460Z,2.53
2018-07-06T12:33:30.718Z,2.97
2018-07-06T12:38:34.618Z,3.20
2018-07-06T12:43:37.905Z,3.97
2018-07-06T12:48:42.609Z,3.30
2018-07-06T12:53:45.818Z,3.30
2018-07-06T12:58:49.288Z,3.07
2018-07-06T13:03:52.361Z,4.00
2018-07-06T13:08:55.618Z,2.97
2018-07-06T13:13:59.666Z,3.23
2018-07-06T13:19:02.977Z,3.67
2018-07-06T13:24:06.760Z,3.00
2018-07-06T13:29:10.557Z,3.10
2018-07-06T13:34:13.826Z,3.13
2018-07-06T13:39:17.451Z,2.93
2018-07-06T13:44:21.712Z,2.80
2018-07-06T13:49:25.233Z,2.80
2018-07-06T13:54:28.440Z,2.67
2018-07-06T13:59:31.850Z,2.37
2018-07-06T14:04:35.223Z,2.80
2018-07-06T14:09:38.596Z,2.60
2018-07-06T14:14:41.861Z,2.57
2018-07-06T14:19:45.128Z,3.00
2018-07-06T14:24:48.670Z,3.13
2018-07-06T14:29:52.386Z,3.03
2018-07-06T14:34:55.663Z,2.60
2018-07-06T14:39:58.871Z,2.33
2018-07-06T14:45:02.192Z,2.50
2018-07-06T14:50:06.891Z,2.77
2018-07-06T14:55:10.103Z,2.70
2018-07-06T15:00:13.307Z,3.50
2018-07-06T15:05:16.581Z,2.67
2018-07-06T15:10:19.844Z,2.80
2018-07-06T15:15:23.247Z,2.50
2018-07-06T15:20:26.496Z,2.83
2018-07-06T15:25:29.714Z,3.10
2018-07-06T15:30:33.123Z,2.77
2018-07-06T15:35:36.326Z,3.03
2018-07-06T15:40:39.614Z,3.03
2018-07-06T15:45:43.194Z,2.60
2018-07-06T15:50:46.725Z,2.63
2018-07-06T15:55:50.264Z,2.60
2018-07-06T16:00:53.469Z,2.83
2018-07-06T16:05:56.746Z,2.73
2018-07-06T16:11:00.230Z,2.90
2018-07-06T16:16:03.490Z,2.53
2018-07-06T16:21:06.895Z,3.07
2018-07-06T16:26:10.985Z,2.50
2018-07-06T16:31:14.302Z,2.80
2018-07-06T16:36:17.651Z,2.40
2018-07-06T16:41:21.602Z,3.43
2018-07-06T16:46:24.966Z,3.10
2018-07-06T16:51:28.185Z,3.10
2018-07-06T16:56:31.557Z,3.10
2018-07-06T17:01:34.821Z,2.87
2018-07-06T17:06:38.061Z,2.83
2018-07-06T17:11:41.298Z,3.33
2018-07-06T17:16:44.579Z,3.63
2018-07-06T17:21:48.302Z,3.90
2018-07-06T17:26:51.568Z,3.43
2018-07-06T17:31:55.021Z,3.13
2018-07-06T17:36:58.338Z,3.73
2018-07-06T17:42:01.955Z,3.13
2018-07-06T17:47:05.647Z,3.50
2018-07-06T17:52:08.897Z,3.30
2018-07-06T17:57:12.158Z,3.77
2018-07-06T18:02:15.446Z,3.40
2018-07-06T18:07:18.843Z,4.17
2018-07-06T18:12:22.154Z,4.27
2018-07-06T18:17:25.736Z,4.17
2018-07-06T18:22:29.543Z,3.33
2018-07-06T18:27:33.123Z,4.27
2018-07-06T18:32:36.426Z,5.40
2018-07-06T18:37:39.712Z,3.70
2018-07-06T18:42:42.718Z,4.00
2018-07-06T18:47:45.972Z,3.80
2018-07-06T18:52:49.308Z,4.57
2018-07-06T18:57:52.616Z,5.10
2018-07-06T19:02:56.200Z,4.23
2018-07-06T19:08:00.012Z,4.80
2018-07-06T19:13:03.382Z,4.40
2018-07-06T19:18:06.847Z,4.53
2018-07-06T19:23:10.493Z,4.23
2018-07-06T19:28:13.787Z,3.60
2018-07-06T19:33:17.039Z,4.30
2018-07-06T19:38:20.404Z,4.27
2018-07-06T19:43:23.666Z,4.10
2018-07-06T19:48:27.038Z,4.70
2018-07-06T19:53:30.257Z,4.10
2018-07-06T19:58:33.547Z,4.30
2018-07-06T20:03:36.942Z,6.17
2018-07-06T20:08:40.410Z,6.60
2018-07-06T20:13:43.653Z,6.00
2018-07-06T20:18:46.869Z,4.43
2018-07-06T20:23:50.159Z,8.30
2018-07-06T20:28:53.386Z,5.60
2018-07-06T20:33:56.600Z,4.83
2018-07-06T20:39:00.181Z,5.73
2018-07-06T20:44:03.490Z,4.77
2018-07-06T20:49:06.739Z,6.47
2018-07-06T20:54:09.999Z,4.37
2018-07-06T20:59:13.260Z,4.20
2018-07-06T21:04:16.488Z,4.43
2018-07-06T21:09:20.243Z,4.33
2018-07-06T21:14:23.849Z,3.90
2018-07-06T21:19:27.192Z,3.93
2018-07-06T21:24:30.479Z,3.73
2018-07-06T21:29:33.666Z,3.40
2018-07-06T21:34:37.081Z,3.97
2018-07-06T21:39:40.923Z,4.03
2018-07-06T21:44:44.193Z,3.63
2018-07-06T21:49:47.986Z,4.07
2018-07-06T21:54:51.676Z,4.23
2018-07-06T21:59:55.244Z,4.13
2018-07-06T22:04:58.540Z,3.50
2018-07-06T22:10:02.809Z,4.13
2018-07-06T22:15:06.057Z,3.97
2018-07-06T22:20:09.549Z,3.53
2018-07-06T22:25:12.781Z,3.53
2018-07-06T22:30:16.013Z,4.33
2018-07-06T22:35:19.403Z,4.47
2018-07-06T22:40:22.633Z,3.70
2018-07-06T22:45:26.387Z,3.50
2018-07-06T22:50:29.787Z,3.90
2018-07-06T22:55:33.116Z,4.10
2018-07-06T23:00:36.406Z,3.57
2018-07-06T23:05:39.795Z,3.60
2018-07-06T23:10:43.119Z,3.27
2018-07-06T23:15:46.929Z,4.57
2018-07-06T23:20:50.313Z,3.87
2018-07-06T23:25:53.557Z,3.60
2018-07-06T23:30:56.839Z,3.70
2018-07-06T23:36:00.110Z,3.17
2018-07-06T23:41:03.297Z,3.00
2018-07-06T23:46:06.810Z,3.25
2018-07-06T23:51:10.063Z,4.30
2018-07-06T23:56:13.654Z,4.10
